WAT4275 YYND-YBAS
Flight info
| Callsign | WAT4275 |
|---|---|
| Flight time | 0h 37m |
| Altitude | 19000 |
| Route | LISZT |
| Aircraft | B350/L-SBGRW/S |
Departure
| Time | 2026-05-04 22:22 |
|---|---|
| Airport | Yuendumu Airport (YYND) |
Arrival
| Time | 2026-05-04 22:59 |
|---|---|
| Airport | Alice Springs Airport (YBAS) |
| Time | Latitude | Longitude | Altitude | Speed | Heading |
|---|---|---|---|---|---|
| 2026-05-04 22:19 | -22.25711 | 131.78706 | 2214 ft | 0 kts | 308° |
| 2026-05-04 22:20 | -22.25684 | 131.78668 | 2215 ft | 21 kts | 308° |
| 2026-05-04 22:20 | -22.25571 | 131.78514 | 2213 ft | 30 kts | 308° |
| 2026-05-04 22:21 | -22.25439 | 131.78332 | 2212 ft | 32 kts | 308° |
| 2026-05-04 22:21 | -22.25299 | 131.78140 | 2210 ft | 33 kts | 308° |
| 2026-05-04 22:21 | -22.25214 | 131.78030 | 2209 ft | 3 kts | 258° |
| 2026-05-04 22:21 | -22.25245 | 131.78064 | 2209 ft | 37 kts | 127° |
| 2026-05-04 22:22 | -22.25607 | 131.78561 | 2224 ft | 123 kts | 128° |
| 2026-05-04 22:22 | -22.26142 | 131.79393 | 2634 ft | 145 kts | 127° |
| 2026-05-04 22:22 | -22.26705 | 131.80352 | 3133 ft | 157 kts | 120° |
| 2026-05-04 22:22 | -22.27346 | 131.81348 | 3627 ft | 166 kts | 131° |
| 2026-05-04 22:23 | -22.28137 | 131.82305 | 4137 ft | 174 kts | 134° |
| 2026-05-04 22:23 | -22.28977 | 131.83262 | 4625 ft | 180 kts | 135° |
| 2026-05-04 22:23 | -22.29860 | 131.84241 | 5136 ft | 184 kts | 135° |
| 2026-05-04 22:23 | -22.30706 | 131.85301 | 5638 ft | 188 kts | 128° |
| 2026-05-04 22:24 | -22.31505 | 131.86425 | 6142 ft | 190 kts | 129° |
| 2026-05-04 22:24 | -22.32340 | 131.87539 | 6650 ft | 191 kts | 130° |
| 2026-05-04 22:24 | -22.33188 | 131.88658 | 7149 ft | 193 kts | 130° |
| 2026-05-04 22:24 | -22.34031 | 131.89792 | 7652 ft | 194 kts | 129° |
| 2026-05-04 22:25 | -22.34883 | 131.90937 | 8098 ft | 198 kts | 130° |
| 2026-05-04 22:25 | -22.35764 | 131.92113 | 8471 ft | 204 kts | 130° |
| 2026-05-04 22:25 | -22.36664 | 131.93318 | 8853 ft | 208 kts | 130° |
| 2026-05-04 22:25 | -22.37570 | 131.94534 | 9223 ft | 211 kts | 130° |
| 2026-05-04 22:26 | -22.38499 | 131.95779 | 9594 ft | 213 kts | 129° |
| 2026-05-04 22:26 | -22.39434 | 131.97030 | 9975 ft | 215 kts | 129° |
| 2026-05-04 22:26 | -22.40374 | 131.98291 | 10353 ft | 216 kts | 129° |
| 2026-05-04 22:26 | -22.41320 | 131.99560 | 10730 ft | 217 kts | 129° |
| 2026-05-04 22:27 | -22.42270 | 132.00833 | 11112 ft | 218 kts | 129° |
| 2026-05-04 22:27 | -22.43225 | 132.02114 | 11484 ft | 219 kts | 129° |
| 2026-05-04 22:27 | -22.44171 | 132.03383 | 11854 ft | 220 kts | 129° |
| 2026-05-04 22:27 | -22.45130 | 132.04671 | 12228 ft | 220 kts | 129° |
| 2026-05-04 22:28 | -22.46092 | 132.05962 | 12599 ft | 221 kts | 129° |
| 2026-05-04 22:28 | -22.47073 | 132.07277 | 12822 ft | 228 kts | 129° |
| 2026-05-04 22:28 | -22.48078 | 132.08627 | 13048 ft | 233 kts | 129° |
| 2026-05-04 22:28 | -22.49100 | 132.10000 | 13273 ft | 236 kts | 129° |
| 2026-05-04 22:29 | -22.50136 | 132.11392 | 13499 ft | 238 kts | 129° |
| 2026-05-04 22:29 | -22.51179 | 132.12795 | 13717 ft | 240 kts | 129° |
| 2026-05-04 22:29 | -22.52228 | 132.14205 | 13951 ft | 241 kts | 129° |
| 2026-05-04 22:29 | -22.53283 | 132.15623 | 14175 ft | 242 kts | 129° |
| 2026-05-04 22:30 | -22.54344 | 132.17050 | 14400 ft | 243 kts | 129° |
| 2026-05-04 22:30 | -22.55406 | 132.18480 | 14632 ft | 244 kts | 129° |
| 2026-05-04 22:30 | -22.56473 | 132.19916 | 14824 ft | 246 kts | 129° |
| 2026-05-04 22:30 | -22.57556 | 132.21372 | 14917 ft | 251 kts | 129° |
| 2026-05-04 22:31 | -22.58650 | 132.22845 | 14960 ft | 257 kts | 129° |
| 2026-05-04 22:31 | -22.59778 | 132.24365 | 14980 ft | 261 kts | 129° |
| 2026-05-04 22:31 | -22.60923 | 132.25908 | 14992 ft | 264 kts | 129° |
| 2026-05-04 22:31 | -22.62077 | 132.27464 | 14999 ft | 267 kts | 129° |
| 2026-05-04 22:32 | -22.63244 | 132.29036 | 14996 ft | 268 kts | 129° |
| 2026-05-04 22:32 | -22.64415 | 132.30616 | 15001 ft | 269 kts | 129° |
| 2026-05-04 22:32 | -22.65589 | 132.32200 | 14999 ft | 270 kts | 129° |
| 2026-05-04 22:32 | -22.66845 | 132.33708 | 15003 ft | 270 kts | 137° |
| 2026-05-04 22:33 | -22.68232 | 132.35093 | 14999 ft | 271 kts | 138° |
| 2026-05-04 22:33 | -22.69614 | 132.36480 | 14998 ft | 271 kts | 137° |
| 2026-05-04 22:33 | -22.70973 | 132.37897 | 15002 ft | 271 kts | 136° |
| 2026-05-04 22:33 | -22.72317 | 132.39327 | 14999 ft | 271 kts | 135° |
| 2026-05-04 22:34 | -22.73523 | 132.40862 | 15000 ft | 271 kts | 128° |
| 2026-05-04 22:34 | -22.74694 | 132.42460 | 14999 ft | 271 kts | 130° |
| 2026-05-04 22:34 | -22.75915 | 132.44019 | 14999 ft | 271 kts | 130° |
| 2026-05-04 22:34 | -22.77111 | 132.45602 | 14999 ft | 271 kts | 130° |
| 2026-05-04 22:35 | -22.78313 | 132.47177 | 15001 ft | 271 kts | 130° |
| 2026-05-04 22:35 | -22.79517 | 132.48752 | 14999 ft | 271 kts | 130° |
| 2026-05-04 22:35 | -22.80717 | 132.50328 | 15001 ft | 271 kts | 130° |
| 2026-05-04 22:35 | -22.81918 | 132.51904 | 15001 ft | 271 kts | 130° |
| 2026-05-04 22:36 | -22.83122 | 132.53484 | 14999 ft | 271 kts | 130° |
| 2026-05-04 22:36 | -22.84322 | 132.55060 | 14998 ft | 271 kts | 130° |
| 2026-05-04 22:36 | -22.85524 | 132.56638 | 14998 ft | 271 kts | 130° |
| 2026-05-04 22:36 | -22.86725 | 132.58217 | 14999 ft | 271 kts | 130° |
| 2026-05-04 22:37 | -22.87928 | 132.59797 | 14999 ft | 271 kts | 130° |
| 2026-05-04 22:37 | -22.89129 | 132.61375 | 14998 ft | 271 kts | 130° |
| 2026-05-04 22:37 | -22.90317 | 132.62938 | 14999 ft | 271 kts | 130° |
| 2026-05-04 22:37 | -22.91517 | 132.64517 | 15000 ft | 271 kts | 130° |
| 2026-05-04 22:38 | -22.92722 | 132.66102 | 14999 ft | 271 kts | 130° |
| 2026-05-04 22:38 | -22.93921 | 132.67680 | 15000 ft | 271 kts | 130° |
| 2026-05-04 22:38 | -22.95121 | 132.69261 | 15000 ft | 271 kts | 130° |
| 2026-05-04 22:38 | -22.96322 | 132.70841 | 15002 ft | 271 kts | 130° |
| 2026-05-04 22:39 | -22.97521 | 132.72422 | 14999 ft | 271 kts | 130° |
| 2026-05-04 22:39 | -22.98703 | 132.73979 | 15002 ft | 271 kts | 130° |
| 2026-05-04 22:39 | -22.99902 | 132.75559 | 15003 ft | 271 kts | 130° |
| 2026-05-04 22:39 | -23.01102 | 132.77143 | 14999 ft | 271 kts | 130° |
| 2026-05-04 22:40 | -23.02303 | 132.78726 | 15000 ft | 271 kts | 130° |
| 2026-05-04 22:40 | -23.03501 | 132.80308 | 15003 ft | 271 kts | 130° |
| 2026-05-04 22:40 | -23.04699 | 132.81889 | 14998 ft | 271 kts | 130° |
| 2026-05-04 22:40 | -23.05897 | 132.83469 | 15001 ft | 271 kts | 130° |
| 2026-05-04 22:41 | -23.07093 | 132.85050 | 14999 ft | 271 kts | 130° |
| 2026-05-04 22:41 | -23.08292 | 132.86634 | 15001 ft | 271 kts | 130° |
| 2026-05-04 22:41 | -23.09491 | 132.88217 | 14998 ft | 271 kts | 130° |
| 2026-05-04 22:41 | -23.10671 | 132.89778 | 15000 ft | 271 kts | 130° |
| 2026-05-04 22:42 | -23.11867 | 132.91358 | 15000 ft | 271 kts | 129° |
| 2026-05-04 22:42 | -23.13065 | 132.92944 | 14999 ft | 271 kts | 130° |
| 2026-05-04 22:42 | -23.14263 | 132.94529 | 15001 ft | 271 kts | 130° |
| 2026-05-04 22:42 | -23.15458 | 132.96111 | 14999 ft | 271 kts | 129° |
| 2026-05-04 22:43 | -23.16656 | 132.97696 | 15001 ft | 271 kts | 130° |
| 2026-05-04 22:43 | -23.17853 | 132.99282 | 15001 ft | 271 kts | 129° |
| 2026-05-04 22:43 | -23.19049 | 133.00866 | 14999 ft | 271 kts | 129° |
| 2026-05-04 22:43 | -23.20245 | 133.02451 | 14999 ft | 271 kts | 129° |
| 2026-05-04 22:44 | -23.21440 | 133.04036 | 15000 ft | 271 kts | 129° |
| 2026-05-04 22:44 | -23.22637 | 133.05623 | 15000 ft | 271 kts | 129° |
| 2026-05-04 22:44 | -23.23832 | 133.07208 | 14999 ft | 271 kts | 129° |
| 2026-05-04 22:44 | -23.25027 | 133.08794 | 14998 ft | 271 kts | 129° |
| 2026-05-04 22:45 | -23.26222 | 133.10380 | 14999 ft | 271 kts | 129° |
| 2026-05-04 22:45 | -23.28596 | 133.13532 | 14999 ft | 271 kts | 129° |
| 2026-05-04 22:45 | -23.29789 | 133.15117 | 15000 ft | 271 kts | 129° |
| 2026-05-04 22:46 | -23.30987 | 133.16709 | 14999 ft | 271 kts | 129° |
| 2026-05-04 22:46 | -23.32182 | 133.18298 | 14998 ft | 271 kts | 129° |
| 2026-05-04 22:46 | -23.33377 | 133.19887 | 14999 ft | 271 kts | 129° |
| 2026-05-04 22:46 | -23.34572 | 133.21476 | 14999 ft | 271 kts | 129° |
| 2026-05-04 22:47 | -23.35767 | 133.23066 | 14999 ft | 271 kts | 129° |
| 2026-05-04 22:47 | -23.36963 | 133.24658 | 14998 ft | 271 kts | 129° |
| 2026-05-04 22:47 | -23.38142 | 133.26227 | 15000 ft | 271 kts | 129° |
| 2026-05-04 22:47 | -23.39334 | 133.27816 | 15000 ft | 271 kts | 129° |
| 2026-05-04 22:48 | -23.40528 | 133.29406 | 14999 ft | 271 kts | 129° |
| 2026-05-04 22:48 | -23.41721 | 133.30995 | 14998 ft | 271 kts | 129° |
| 2026-05-04 22:48 | -23.42918 | 133.32592 | 15000 ft | 271 kts | 129° |
| 2026-05-04 22:48 | -23.44113 | 133.34185 | 15000 ft | 271 kts | 129° |
| 2026-05-04 22:49 | -23.45305 | 133.35775 | 15001 ft | 271 kts | 129° |
| 2026-05-04 22:49 | -23.46498 | 133.37368 | 15000 ft | 271 kts | 129° |
| 2026-05-04 22:49 | -23.47691 | 133.38961 | 15001 ft | 271 kts | 129° |
| 2026-05-04 22:49 | -23.48885 | 133.40555 | 15002 ft | 271 kts | 129° |
| 2026-05-04 22:50 | -23.50079 | 133.42148 | 14998 ft | 271 kts | 129° |
| 2026-05-04 22:50 | -23.51241 | 133.43695 | 14683 ft | 267 kts | 129° |
| 2026-05-04 22:50 | -23.52411 | 133.45266 | 14241 ft | 267 kts | 129° |
| 2026-05-04 22:50 | -23.53583 | 133.46834 | 13792 ft | 267 kts | 129° |
| 2026-05-04 22:51 | -23.54759 | 133.48404 | 13340 ft | 267 kts | 129° |
| 2026-05-04 22:51 | -23.55930 | 133.49973 | 12891 ft | 266 kts | 129° |
| 2026-05-04 22:51 | -23.57099 | 133.51535 | 12459 ft | 265 kts | 129° |
| 2026-05-04 22:51 | -23.58260 | 133.53090 | 12006 ft | 264 kts | 129° |
| 2026-05-04 22:52 | -23.59420 | 133.54642 | 11550 ft | 263 kts | 129° |
| 2026-05-04 22:52 | -23.60575 | 133.56190 | 11111 ft | 263 kts | 129° |
| 2026-05-04 22:52 | -23.61726 | 133.57731 | 10653 ft | 262 kts | 129° |
| 2026-05-04 22:52 | -23.62872 | 133.59268 | 10202 ft | 261 kts | 129° |
| 2026-05-04 22:53 | -23.64016 | 133.60802 | 9749 ft | 260 kts | 129° |
| 2026-05-04 22:53 | -23.65150 | 133.62333 | 9297 ft | 258 kts | 129° |
| 2026-05-04 22:53 | -23.66234 | 133.63859 | 8854 ft | 257 kts | 128° |
| 2026-05-04 22:53 | -23.67279 | 133.65441 | 8400 ft | 256 kts | 122° |
| 2026-05-04 22:54 | -23.68140 | 133.67137 | 7951 ft | 255 kts | 119° |
| 2026-05-04 22:54 | -23.69029 | 133.68788 | 7654 ft | 249 kts | 122° |
| 2026-05-04 22:54 | -23.69895 | 133.70380 | 7510 ft | 239 kts | 120° |
| 2026-05-04 22:54 | -23.70707 | 133.71916 | 7458 ft | 229 kts | 120° |
| 2026-05-04 22:55 | -23.71506 | 133.73391 | 7254 ft | 222 kts | 121° |
| 2026-05-04 22:55 | -23.72259 | 133.74778 | 6776 ft | 204 kts | 120° |
| 2026-05-04 22:55 | -23.72945 | 133.76083 | 6302 ft | 192 kts | 119° |
| 2026-05-04 22:55 | -23.73385 | 133.76906 | 5982 ft | 187 kts | 121° |
| 2026-05-04 22:56 | -23.74058 | 133.78090 | 5504 ft | 181 kts | 122° |
| 2026-05-04 22:56 | -23.74695 | 133.79251 | 5029 ft | 176 kts | 120° |
| 2026-05-04 22:56 | -23.75494 | 133.80768 | 4396 ft | 172 kts | 120° |
| 2026-05-04 22:56 | -23.76097 | 133.81885 | 3919 ft | 170 kts | 120° |
| 2026-05-04 22:57 | -23.76504 | 133.82634 | 3596 ft | 168 kts | 120° |
| 2026-05-04 22:57 | -23.77088 | 133.83719 | 3147 ft | 166 kts | 120° |
| 2026-05-04 22:57 | -23.77642 | 133.84755 | 2921 ft | 144 kts | 120° |
| 2026-05-04 22:57 | -23.78095 | 133.85595 | 2804 ft | 114 kts | 121° |
| 2026-05-04 22:58 | -23.78474 | 133.86353 | 2528 ft | 118 kts | 129° |
| 2026-05-04 22:58 | -23.78909 | 133.87147 | 2240 ft | 124 kts | 130° |
| 2026-05-04 22:58 | -23.79347 | 133.87942 | 2067 ft | 121 kts | 122° |
| 2026-05-04 22:58 | -23.79778 | 133.88735 | 1881 ft | 120 kts | 122° |
| 2026-05-04 22:59 | -23.80174 | 133.89479 | 1795 ft | 106 kts | 124° |
| 2026-05-04 22:59 | -23.80525 | 133.90121 | 1783 ft | 83 kts | 121° |
| 2026-05-04 22:59 | -23.80662 | 133.90390 | 1780 ft | 8 kts | 84° |
| 2026-05-04 22:59 | -23.80630 | 133.90349 | 1781 ft | 17 kts | 303° |
| 2026-05-04 23:00 | -23.80552 | 133.90345 | 1782 ft | 13 kts | 28° |
| 2026-05-04 23:00 | -23.80454 | 133.90408 | 1781 ft | 18 kts | 31° |
| 2026-05-04 23:00 | -23.80414 | 133.90433 | 1781 ft | 8 kts | 27° |
| 2026-05-04 23:00 | -23.80372 | 133.90419 | 1782 ft | 0 kts | 299° |